Time;durP1;ratioP1;P1;durP2;ratioP2;P2;SDS_P1;SDS_P2;PMS_P1;PMS_P2;Temp;Humidity;BMP_temperature;BMP_pressure;BME280_temperature;BME280_humidity;BME280_pressure;Samples;Min_cycle;Max_cycle;Signal;HPM_P1;HPM_P2
2021/06/21 00:00:11;;;;;;;36.65;7.35;;;;;;;26.13;46.12;99786.88;5055667;28;20435;-74
2021/06/21 00:02:39;;;;;;;37.90;7.78;;;;;;;26.15;46.21;99786.66;5055721;28;20472;-73
2021/06/21 00:05:09;;;;;;;24.55;6.63;;;;;;;26.18;46.21;99788.16;5054598;28;20056;-74
2021/06/21 00:07:36;;;;;;;31.42;6.20;;;;;;;26.10;46.76;99795.28;5055737;28;20084;-74
2021/06/21 00:10:05;;;;;;;35.25;8.60;;;;;;;25.92;47.37;99794.84;5054777;28;20480;-74
2021/06/21 00:12:33;;;;;;;39.28;7.13;;;;;;;25.57;48.69;99802.59;5055426;28;20045;-77
2021/06/21 00:15:00;;;;;;;28.80;6.07;;;;;;;25.71;48.55;99802.75;5055438;28;20045;-78
2021/06/21 00:17:28;;;;;;;34.03;7.72;;;;;;;25.73;48.21;99800.75;5055294;28;20045;-77
2021/06/21 00:19:54;;;;;;;35.88;6.72;;;;;;;25.71;48.46;99802.75;5055341;28;20094;-77
2021/06/21 00:22:21;;;;;;;41.20;9.07;;;;;;;25.63;48.54;99805.53;5055210;28;20056;-77
2021/06/21 00:24:48;;;;;;;24.77;7.72;;;;;;;25.55;48.88;99801.09;5055249;28;20037;-77
2021/06/21 00:27:15;;;;;;;31.30;6.63;;;;;;;25.53;49.02;99805.81;5053383;28;20045;-77
2021/06/21 00:29:42;;;;;;;39.72;6.72;;;;;;;25.72;48.49;99799.06;5047391;28;20116;-77
2021/06/21 00:32:09;;;;;;;40.78;8.40;;;;;;;25.75;48.11;99810.25;5048457;28;20041;-77
2021/06/21 00:34:36;;;;;;;26.40;6.35;;;;;;;25.70;48.15;99811.78;5048516;28;20040;-78
2021/06/21 00:37:03;;;;;;;31.88;7.60;;;;;;;25.68;48.17;99819.97;5048170;28;21397;-77
2021/06/21 00:39:30;;;;;;;35.53;8.82;;;;;;;25.70;48.02;99806.44;5048743;28;20439;-78
2021/06/21 00:41:57;;;;;;;39.47;6.35;;;;;;;25.62;48.54;99794.03;5048458;28;20045;-77
2021/06/21 00:44:24;;;;;;;26.73;9.52;;;;;;;25.65;48.19;99798.97;5046770;28;20041;-78
2021/06/21 00:46:51;;;;;;;30.65;8.70;;;;;;;25.64;48.17;99789.31;5048075;28;20041;-77
2021/06/21 00:49:18;;;;;;;31.90;8.18;;;;;;;25.65;48.54;99793.66;5047085;28;20549;-78
2021/06/21 00:51:45;;;;;;;31.95;7.22;;;;;;;25.67;48.43;99796.13;5048149;28;20048;-77
2021/06/21 00:54:12;;;;;;;32.42;6.90;;;;;;;25.67;48.52;99794.28;5046766;28;20041;-77
2021/06/21 00:56:38;;;;;;;41.05;6.53;;;;;;;25.65;48.67;99798.16;5051174;28;20044;-78
2021/06/21 00:59:06;;;;;;;27.98;5.80;;;;;;;25.67;48.74;99788.94;5047712;28;20049;-78
2021/06/21 01:01:32;;;;;;;32.70;7.05;;;;;;;25.65;48.43;99782.13;5048347;28;20091;-77
2021/06/21 01:04:00;;;;;;;29.40;7.60;;;;;;;25.61;48.63;99771.81;5048054;28;20098;-74
2021/06/21 01:06:27;;;;;;;30.15;6.70;;;;;;;25.57;49.20;99770.56;5048270;28;20442;-74
2021/06/21 01:08:55;;;;;;;21.98;6.05;;;;;;;25.57;49.18;99770.56;5047470;28;20059;-74
2021/06/21 01:11:31;;;;;;;31.75;5.97;;;;;;;25.59;49.16;99763.19;5048154;28;20049;-74
2021/06/21 01:14:08;;;;;;;31.85;7.13;;;;;;;25.63;48.80;99763.66;5046455;28;20041;-74
2021/06/21 01:16:53;;;;;;;23.70;5.95;;;;;;;25.65;49.15;99768.78;5047619;28;20048;-74
2021/06/21 01:19:44;;;;;;;43.67;7.88;;;;;;;25.64;48.89;99769.81;5048361;28;20053;-74
2021/06/21 01:22:42;;;;;;;22.02;7.13;;;;;;;25.65;48.85;99776.81;5005828;28;20514;-74
2021/06/21 01:25:18;;;;;;;23.15;6.05;;;;;;;25.67;48.64;99777.44;5046751;28;20040;-74
2021/06/21 01:27:49;;;;;;;30.13;5.68;;;;;;;25.59;48.70;99776.53;5046506;28;20128;-74
2021/06/21 01:30:24;;;;;;;33.88;6.90;;;;;;;25.59;48.75;99776.53;5047384;28;20080;-74
2021/06/21 01:32:55;;;;;;;24.15;6.57;;;;;;;25.61;49.02;99768.34;5047007;28;20095;-76
2021/06/21 01:35:29;;;;;;;30.63;7.55;;;;;;;25.60;48.90;99764.84;5047255;28;20408;-76
2021/06/21 01:37:59;;;;;;;23.50;5.13;;;;;;;25.54;49.17;99762.91;5048490;28;20047;-77
2021/06/21 01:40:30;;;;;;;35.75;6.28;;;;;;;25.56;49.16;99754.72;5048345;28;20053;-76
2021/06/21 01:43:01;;;;;;;20.00;5.63;;;;;;;25.52;49.33;99759.63;5047264;28;20484;-77
2021/06/21 01:45:29;;;;;;;35.65;6.38;;;;;;;25.56;49.24;99746.69;5046783;28;20037;-77
2021/06/21 01:47:57;;;;;;;32.80;7.20;;;;;;;25.52;49.15;99740.09;5047306;28;20049;-76
2021/06/21 01:50:25;;;;;;;26.23;7.55;;;;;;;25.55;48.98;99745.06;5047349;28;20033;-77
2021/06/21 01:53:00;;;;;;;31.45;7.13;;;;;;;25.57;48.69;99749.22;5046717;28;20515;-77
2021/06/21 01:55:29;;;;;;;28.50;5.85;;;;;;;25.55;49.20;99755.72;5047290;28;20094;-77
2021/06/21 01:57:58;;;;;;;21.83;5.45;;;;;;;25.50;49.27;99758.94;5047102;28;20123;-75
2021/06/21 02:00:26;;;;;;;22.83;6.07;;;;;;;25.51;49.11;99760.59;5046821;28;20562;-76
2021/06/21 02:02:55;;;;;;;34.30;6.72;;;;;;;25.52;49.11;99762.28;5046658;28;20045;-76
2021/06/21 02:05:23;;;;;;;28.38;6.60;;;;;;;25.49;49.60;99759.97;5046743;28;20123;-76
2021/06/21 02:07:53;;;;;;;26.08;7.07;;;;;;;25.48;49.80;99755.66;5046919;28;20041;-76
2021/06/21 02:10:21;;;;;;;30.95;6.20;;;;;;;25.50;49.81;99755.47;5046424;28;20400;-76
2021/06/21 02:12:49;;;;;;;25.23;7.35;;;;;;;25.48;50.13;99742.31;5046650;28;20067;-72
2021/06/21 02:15:17;;;;;;;33.72;7.25;;;;;;;25.45;50.18;99745.34;5046729;28;20048;-72
2021/06/21 02:17:45;;;;;;;22.48;5.72;;;;;;;25.50;50.00;99742.94;5045722;28;20412;-71
2021/06/21 02:20:14;;;;;;;26.17;7.57;;;;;;;25.50;49.95;99740.28;5046539;28;20086;-72
2021/06/21 02:22:41;;;;;;;26.10;6.20;;;;;;;25.43;50.36;99736.69;5045921;28;20045;-75
2021/06/21 02:25:09;;;;;;;31.08;6.20;;;;;;;25.39;50.26;99743.41;5046752;28;20037;-75
2021/06/21 02:27:37;;;;;;;27.05;7.75;;;;;;;25.10;51.72;99741.56;5046759;28;20041;-74
2021/06/21 02:30:10;;;;;;;30.27;6.00;;;;;;;25.18;50.48;99743.31;5047782;28;20098;-73
2021/06/21 02:32:38;;;;;;;23.63;8.10;;;;;;;25.29;50.58;99743.69;5061975;28;20041;-76
2021/06/21 02:35:09;;;;;;;23.25;6.97;;;;;;;25.28;50.77;99746.53;5046562;28;20487;-76
2021/06/21 02:37:37;;;;;;;37.58;7.30;;;;;;;25.11;51.63;99745.06;5045928;28;20128;-76
2021/06/21 02:40:07;;;;;;;35.03;7.72;;;;;;;25.07;51.75;99745.41;5045959;28;20041;-76
2021/06/21 02:42:33;;;;;;;31.17;9.07;;;;;;;25.10;51.63;99749.56;5046441;28;20041;-76
2021/06/21 02:45:00;;;;;;;23.75;6.07;;;;;;;25.07;51.96;99745.41;5045828;28;20053;-77
2021/06/21 02:47:27;;;;;;;23.77;5.32;;;;;;;25.06;51.89;99751.78;5047169;28;20033;-76
2021/06/21 02:49:54;;;;;;;24.60;6.68;;;;;;;25.12;51.72;99754.72;5047189;28;20083;-76
2021/06/21 02:52:28;;;;;;;25.80;6.93;;;;;;;25.13;51.31;99751.03;5046244;28;20048;-76
2021/06/21 02:55:29;;;;;;;27.67;6.60;;;;;;;25.12;51.49;99749.38;5047397;28;20041;-76
2021/06/21 02:58:07;;;;;;;25.70;7.35;;;;;;;25.11;51.38;99753.06;5046323;28;20091;-76
2021/06/21 03:00:37;;;;;;;22.02;5.20;;;;;;;25.13;51.31;99751.03;5046177;28;20037;-76
2021/06/21 03:03:08;;;;;;;32.38;7.90;;;;;;;25.15;51.32;99754.38;5046213;28;20037;-76
2021/06/21 03:05:36;;;;;;;21.10;5.63;;;;;;;25.12;51.36;99749.38;5045412;28;20048;-76
2021/06/21 03:08:05;;;;;;;27.48;5.35;;;;;;;25.13;51.12;99751.84;5047972;28;20091;-76
2021/06/21 03:10:34;;;;;;;29.02;7.03;;;;;;;25.12;50.85;99744.06;5047128;28;20037;-76
2021/06/21 03:13:02;;;;;;;26.40;5.88;;;;;;;25.05;50.85;99743.94;5046100;28;20459;-77
2021/06/21 03:15:30;;;;;;;24.05;5.80;;;;;;;25.07;50.69;99748.09;5049533;28;20045;-76
2021/06/21 03:18:03;;;;;;;23.50;6.75;;;;;;;25.05;50.40;99750.09;5048727;28;20044;-76
2021/06/21 03:20:30;;;;;;;29.33;5.88;;;;;;;25.01;50.42;99748.78;5050399;28;20083;-75
2021/06/21 03:22:59;;;;;;;13.93;4.93;;;;;;;24.98;50.48;99743.84;5050067;28;20095;-74
2021/06/21 03:25:31;;;;;;;35.50;6.70;;;;;;;24.96;50.24;99751.16;5048800;28;20099;-73
2021/06/21 03:28:07;;;;;;;22.05;5.45;;;;;;;24.99;50.08;99763.31;5049507;28;20041;-72
2021/06/21 03:30:34;;;;;;;23.67;6.50;;;;;;;24.96;49.88;99758.34;5049938;28;20503;-72
2021/06/21 03:33:00;;;;;;;22.25;5.65;;;;;;;24.94;49.87;99763.03;5049911;28;20040;-72
2021/06/21 03:35:31;;;;;;;30.98;6.18;;;;;;;24.96;49.68;99774.34;5050396;28;20045;-73
2021/06/21 03:38:08;;;;;;;27.42;5.90;;;;;;;24.94;49.50;99776.38;5049719;28;20037;-72
2021/06/21 03:40:35;;;;;;;27.45;7.97;;;;;;;24.95;49.38;99781.50;5050557;28;20589;-73
2021/06/21 03:43:02;;;;;;;35.92;7.85;;;;;;;24.92;49.58;99783.69;5049696;28;20029;-72
2021/06/21 03:45:29;;;;;;;27.67;6.22;;;;;;;24.89;49.82;99776.91;5049490;28;20099;-73
2021/06/21 03:47:56;;;;;;;21.52;4.88;;;;;;;24.87;49.55;99780.75;5049853;28;20399;-73
2021/06/21 03:50:23;;;;;;;31.40;6.15;;;;;;;24.85;49.71;99780.94;5048079;28;20049;-75
2021/06/21 03:52:49;;;;;;;25.23;5.78;;;;;;;24.82;49.78;99776.81;5048897;28;20045;-75
2021/06/21 03:55:16;;;;;;;25.17;6.30;;;;;;;24.83;49.70;99789.13;5047787;28;20048;-75
2021/06/21 03:57:46;;;;;;;35.15;7.00;;;;;;;24.85;49.48;99788.09;5049207;28;20352;-75
2021/06/21 04:00:24;;;;;;;31.67;6.20;;;;;;;24.83;49.39;99793.63;5048528;28;20496;-74
2021/06/21 04:02:51;;;;;;;31.13;6.43;;;;;;;24.87;49.50;99805.56;5049490;28;20068;-75
2021/06/21 04:05:19;;;;;;;26.85;6.63;;;;;;;24.91;49.06;99801.53;5048598;28;20049;-75
2021/06/21 04:07:47;;;;;;;28.08;6.28;;;;;;;24.92;49.08;99808.53;5049046;28;20478;-75
2021/06/21 04:10:19;;;;;;;22.88;7.32;;;;;;;24.95;49.06;99813.50;5048829;28;20048;-75
2021/06/21 04:12:47;;;;;;;25.30;8.27;;;;;;;24.99;49.11;99817.47;5049007;28;20127;-75
2021/06/21 04:15:16;;;;;;;37.78;6.72;;;;;;;25.01;48.77;99812.78;5048732;28;20150;-75
2021/06/21 04:17:44;;;;;;;25.67;4.85;;;;;;;25.03;48.94;99813.41;5050481;28;20048;-76
2021/06/21 04:20:18;;;;;;;29.75;5.68;;;;;;;25.07;48.80;99817.41;5051865;28;20503;-76
2021/06/21 04:22:46;;;;;;;23.83;5.68;;;;;;;25.08;48.89;99819.06;5056912;28;20057;-76
2021/06/21 04:25:15;;;;;;;14.95;5.30;;;;;;;25.16;48.85;99814.69;5067439;28;20040;-76
2021/06/21 04:27:43;;;;;;;23.95;5.43;;;;;;;25.22;48.88;99816.63;5061892;28;20064;-76
2021/06/21 04:30:15;;;;;;;19.25;6.30;;;;;;;25.27;48.60;99812.41;5062312;28;20047;-76
2021/06/21 04:32:42;;;;;;;16.27;5.60;;;;;;;25.32;48.59;99822.53;5054871;28;20476;-76
2021/06/21 04:35:13;;;;;;;21.13;5.03;;;;;;;25.38;48.64;99818.31;5054830;28;20045;-77
2021/06/21 04:37:40;;;;;;;22.63;6.63;;;;;;;25.43;48.40;99815.91;5063263;28;20044;-76
2021/06/21 04:40:11;;;;;;;21.05;5.75;;;;;;;25.48;48.54;99819.69;5054824;28;20033;-77
2021/06/21 04:42:39;;;;;;;28.33;5.53;;;;;;;25.53;48.51;99813.81;5054953;28;20045;-77
2021/06/21 04:45:07;;;;;;;21.45;5.22;;;;;;;25.58;48.63;99804.25;5054667;28;20491;-76
2021/06/21 04:47:34;;;;;;;16.52;5.43;;;;;;;25.66;48.77;99816.66;5054379;28;20045;-76
2021/06/21 04:50:04;;;;;;;17.42;5.30;;;;;;;25.71;48.75;99813.44;5054486;28;20128;-76
2021/06/21 04:52:39;;;;;;;29.58;6.65;;;;;;;25.78;49.12;99814.38;5054678;28;20463;-76
2021/06/21 04:55:07;;;;;;;24.38;5.30;;;;;;;25.88;49.12;99820.25;5063906;28;20099;-70
2021/06/21 04:57:35;;;;;;;33.65;5.72;;;;;;;25.96;49.29;99825.50;5048104;28;20071;-67
2021/06/21 05:00:08;;;;;;;20.25;5.43;;;;;;;26.09;49.24;99827.50;5054431;28;20052;-69
2021/06/21 05:02:34;;;;;;;23.35;4.50;;;;;;;26.22;49.41;99832.19;5054478;28;20048;-70
2021/06/21 05:05:02;;;;;;;26.65;5.47;;;;;;;26.37;49.12;99835.66;5048029;28;20040;-71
2021/06/21 05:07:29;;;;;;;18.63;5.25;;;;;;;26.52;49.04;99839.09;5046895;28;20503;-70
2021/06/21 05:09:56;;;;;;;21.70;6.60;;;;;;;26.70;48.34;99843.22;5047154;28;20064;-73
2021/06/21 05:12:22;;;;;;;14.07;4.90;;;;;;;26.82;48.53;99841.66;5048070;28;20047;-70
2021/06/21 05:14:49;;;;;;;18.85;5.00;;;;;;;27.08;48.02;99847.28;5046730;28;20045;-70
2021/06/21 05:17:16;;;;;;;20.15;4.68;;;;;;;27.25;47.99;99841.66;5050256;28;20052;-70
2021/06/21 05:19:44;;;;;;;26.58;5.00;;;;;;;27.44;47.43;99843.66;5054888;28;20055;-69
2021/06/21 05:22:11;;;;;;;29.55;5.47;;;;;;;27.64;47.06;99838.41;5048240;28;20090;-70
2021/06/21 05:24:37;;;;;;;18.75;4.97;;;;;;;27.85;46.36;99840.19;5053058;28;20466;-69
2021/06/21 05:27:04;;;;;;;20.40;4.97;;;;;;;28.02;46.12;99849.56;5068691;28;20573;-71
2021/06/21 05:29:32;;;;;;;32.60;6.28;;;;;;;28.29;45.79;99838.94;5053714;28;20041;-72
2021/06/21 05:32:02;;;;;;;27.73;6.70;;;;;;;28.55;45.35;99846.22;5053972;28;20045;-70
2021/06/21 05:34:30;;;;;;;26.73;5.63;;;;;;;28.74;44.65;99845.44;5053559;28;20049;-69
2021/06/21 05:36:56;;;;;;;26.65;5.82;;;;;;;28.85;43.91;99855.56;5053480;28;20458;-72
2021/06/21 05:39:23;;;;;;;29.50;5.18;;;;;;;29.01;44.41;99851.69;5053205;28;20048;-71
2021/06/21 05:41:50;;;;;;;31.60;5.18;;;;;;;29.13;43.48;99854.56;5053031;28;20068;-71
2021/06/21 05:44:17;;;;;;;33.10;6.55;;;;;;;29.40;42.74;99860.75;5055035;28;20044;-71
2021/06/21 05:46:45;;;;;;;30.38;5.10;;;;;;;29.62;41.64;99862.22;5064639;28;20431;-72
2021/06/21 05:49:12;;;;;;;25.17;5.55;;;;;;;29.93;41.20;99863.34;5053502;28;20068;-73
2021/06/21 05:51:39;;;;;;;19.17;3.95;;;;;;;30.19;40.28;99863.28;5053111;28;20500;-75
2021/06/21 05:54:05;;;;;;;25.92;5.47;;;;;;;30.33;39.76;99865.91;5053299;28;20056;-74
2021/06/21 05:56:32;;;;;;;19.40;6.18;;;;;;;30.67;39.07;99865.50;5044105;28;20052;-72
2021/06/21 05:58:59;;;;;;;40.17;4.97;;;;;;;30.89;38.44;99870.56;5054953;28;20455;-71
2021/06/21 06:01:26;;;;;;;25.30;6.00;;;;;;;31.13;38.59;99863.56;5048580;28;20042;-66
2021/06/21 06:03:53;;;;;;;20.10;4.03;;;;;;;31.32;38.43;99875.22;5046161;28;20044;-64
2021/06/21 06:06:20;;;;;;;12.00;4.22;;;;;;;31.53;37.39;99874.81;5056086;28;20053;-64
2021/06/21 06:08:46;;;;;;;19.83;4.55;;;;;;;31.72;37.18;99876.47;5059067;28;20045;-65
2021/06/21 06:11:13;;;;;;;18.98;6.20;;;;;;;31.73;36.97;99878.13;5051524;28;20553;-66
2021/06/21 06:13:40;;;;;;;20.42;5.15;;;;;;;32.12;36.75;99876.06;5051427;28;20079;-65
2021/06/21 06:16:12;;;;;;;21.98;5.45;;;;;;;32.26;35.90;99882.91;5058812;28;20391;-64
2021/06/21 06:18:39;;;;;;;21.98;5.15;;;;;;;32.45;36.03;99880.22;5057947;28;20545;-63
2021/06/21 06:21:05;;;;;;;17.35;4.28;;;;;;;32.63;35.40;99882.88;5058654;28;20082;-67
2021/06/21 06:23:38;;;;;;;11.40;4.10;;;;;;;32.89;35.27;99886.25;5055143;28;20136;-64
2021/06/21 06:26:05;;;;;;;21.58;4.97;;;;;;;33.20;34.98;99883.25;5047407;28;20741;-66
2021/06/21 06:28:31;;;;;;;19.67;4.82;;;;;;;33.33;34.46;99888.41;5052705;28;20098;-65
2021/06/21 06:30:58;;;;;;;15.98;4.15;;;;;;;33.38;33.87;99885.84;5052823;28;20403;-65
2021/06/21 06:33:25;;;;;;;13.90;5.13;;;;;;;33.67;33.35;99880.59;5048339;28;20048;-64
2021/06/21 06:35:52;;;;;;;19.52;4.93;;;;;;;33.94;32.74;99877.41;5048401;28;20043;-65
2021/06/21 06:38:19;;;;;;;20.27;4.85;;;;;;;34.09;32.51;99881.25;5053415;28;20491;-67
2021/06/21 06:40:46;;;;;;;18.20;3.90;;;;;;;34.37;31.98;99876.91;5059385;28;20053;-67
2021/06/21 06:43:13;;;;;;;27.73;4.38;;;;;;;34.62;31.80;99869.31;5045642;28;20441;-67
2021/06/21 06:45:40;;;;;;;18.65;3.88;;;;;;;34.76;31.40;99866.28;5044262;28;20071;-70
2021/06/21 06:48:07;;;;;;;24.45;4.47;;;;;;;34.98;31.34;99863.69;5045339;28;20114;-67
2021/06/21 06:50:33;;;;;;;23.90;4.30;;;;;;;35.21;30.68;99868.94;5051974;28;20408;-66
2021/06/21 06:53:01;;;;;;;25.92;4.95;;;;;;;35.40;30.17;99859.47;5056016;28;20056;-66
2021/06/21 06:58:14;;;;;;;30.20;6.10;;;;;;;35.14;29.42;99852.84;5056116;28;20553;-66
2021/06/21 07:00:41;;;;;;;28.35;4.47;;;;;;;35.22;29.71;99851.63;5069148;28;20040;-68
2021/06/21 07:03:08;;;;;;;17.40;4.28;;;;;;;35.55;30.08;99856.19;5069190;28;20044;-66
2021/06/21 07:05:36;;;;;;;25.85;4.88;;;;;;;35.65;29.08;99852.81;5064811;28;20056;-69
2021/06/21 07:08:03;;;;;;;25.75;6.03;;;;;;;35.90;28.90;99847.72;5049286;28;20119;-66
2021/06/21 07:10:30;;;;;;;18.42;5.28;;;;;;;36.16;28.98;99853.44;5051150;28;20476;-66
2021/06/21 07:12:58;;;;;;;24.85;5.45;;;;;;;36.30;28.82;99851.97;5049910;28;20049;-67
2021/06/21 07:15:25;;;;;;;22.65;5.65;;;;;;;36.55;28.69;99853.34;5049736;28;20049;-66
2021/06/21 07:17:53;;;;;;;31.92;5.20;;;;;;;36.41;28.49;99852.94;5049331;28;20041;-65
2021/06/21 07:20:19;;;;;;;22.00;5.10;;;;;;;36.77;28.09;99851.38;5051625;28;20527;-65
2021/06/21 07:22:46;;;;;;;24.70;4.60;;;;;;;37.08;27.93;99857.91;5051587;28;20099;-63
2021/06/21 07:25:13;;;;;;;28.17;6.05;;;;;;;37.27;27.76;99857.47;5047950;28;20041;-66
2021/06/21 07:27:40;;;;;;;21.10;3.72;;;;;;;37.32;27.27;99858.31;5045693;28;20442;-64
2021/06/21 07:30:08;;;;;;;19.95;4.97;;;;;;;37.39;27.74;99861.66;5047904;28;20087;-65
2021/06/21 07:32:35;;;;;;;20.77;4.25;;;;;;;37.68;26.99;99855.84;5047879;28;20037;-66
2021/06/21 07:35:02;;;;;;;27.77;5.28;;;;;;;37.24;26.69;99856.13;5048647;28;20041;-66
2021/06/21 07:37:29;;;;;;;23.65;6.43;;;;;;;36.65;27.52;99845.31;5047782;28;20060;-68
2021/06/21 07:39:56;;;;;;;20.13;5.47;;;;;;;35.95;28.86;99855.09;5048978;28;20326;-65
2021/06/21 07:42:22;;;;;;;19.35;4.97;;;;;;;36.22;28.83;99849.69;5049126;28;20118;-63
2021/06/21 07:44:49;;;;;;;31.75;7.47;;;;;;;36.62;28.42;99853.94;5048965;28;20106;-67
2021/06/21 07:47:17;;;;;;;35.70;8.25;;;;;;;36.69;28.31;99849.13;5048178;28;20123;-67
2021/06/21 07:49:44;;;;;;;28.20;6.55;;;;;;;37.13;27.22;99848.97;5048033;28;20059;-66
2021/06/21 07:52:10;;;;;;;21.77;6.95;;;;;;;36.77;27.69;99845.94;5047558;28;20045;-65
2021/06/21 07:54:37;;;;;;;22.67;5.53;;;;;;;37.38;27.33;99854.59;5048405;28;20106;-63
2021/06/21 07:57:07;;;;;;;33.65;4.80;;;;;;;37.53;27.03;99850.31;5048833;28;20404;-63
2021/06/21 07:59:34;;;;;;;21.42;5.32;;;;;;;37.37;26.97;99854.84;5048809;28;20060;-66
2021/06/21 08:02:01;;;;;;;28.05;6.13;;;;;;;37.09;27.30;99842.41;5046535;28;20037;-66
2021/06/21 08:04:28;;;;;;;22.15;5.07;;;;;;;37.28;27.26;99846.34;5049085;28;20052;-66
2021/06/21 08:06:55;;;;;;;20.88;6.20;;;;;;;37.57;26.94;99843.28;5048402;28;22735;-66
2021/06/21 08:09:22;;;;;;;26.85;5.55;;;;;;;37.21;26.84;99835.69;5048333;28;20032;-65
2021/06/21 08:11:49;;;;;;;20.75;5.03;;;;;;;37.37;27.17;99839.38;5048109;28;20088;-66
2021/06/21 08:14:17;;;;;;;24.95;4.82;;;;;;;37.38;27.35;99843.72;5047827;28;20045;-67
2021/06/21 08:16:43;;;;;;;20.92;5.72;;;;;;;37.65;26.63;99832.72;5049732;28;20064;-70
2021/06/21 08:19:10;;;;;;;27.60;6.70;;;;;;;38.11;25.86;99842.97;5053664;28;20068;-69
2021/06/21 08:21:37;;;;;;;20.88;5.47;;;;;;;38.06;25.70;99841.06;5048008;28;20044;-69
2021/06/21 08:24:09;;;;;;;20.52;4.35;;;;;;;37.54;26.02;99827.50;5050632;28;20373;-66
2021/06/21 08:26:37;;;;;;;29.83;5.77;;;;;;;37.80;25.53;99837.41;5053616;28;20492;-69
2021/06/21 08:29:05;;;;;;;29.85;4.78;;;;;;;37.85;25.52;99832.00;5054170;28;20052;-66
2021/06/21 08:31:32;;;;;;;20.13;4.53;;;;;;;37.38;25.89;99835.56;5053393;28;20033;-67
2021/06/21 08:33:59;;;;;;;25.67;5.68;;;;;;;37.48;25.83;99826.66;5053817;28;20051;-68
2021/06/21 08:36:26;;;;;;;22.70;4.82;;;;;;;37.72;25.88;99827.84;5054363;28;20094;-73
2021/06/21 08:38:53;;;;;;;37.78;6.07;;;;;;;37.69;25.74;99836.53;5051820;28;20396;-67
2021/06/21 08:41:21;;;;;;;35.30;6.07;;;;;;;37.73;25.38;99834.13;5053825;28;20561;-69
2021/06/21 08:43:48;;;;;;;24.70;5.15;;;;;;;37.42;26.07;99836.69;5052137;28;20045;-71
2021/06/21 08:46:16;;;;;;;37.28;7.53;;;;;;;36.79;26.78;99830.19;5053357;28;20049;-74
2021/06/21 08:48:46;;;;;;;23.73;5.05;;;;;;;36.66;27.17;99826.03;5054585;28;20464;-74
2021/06/21 08:51:15;;;;;;;29.25;5.30;;;;;;;36.11;27.55;99832.50;5053533;28;20068;-76
2021/06/21 08:53:42;;;;;;;25.20;6.35;;;;;;;36.06;27.79;99834.34;5053293;28;20041;-75
2021/06/21 08:56:10;;;;;;;25.10;5.88;;;;;;;35.91;27.81;99830.34;5049966;28;20049;-74
2021/06/21 08:58:39;;;;;;;29.02;6.28;;;;;;;35.57;28.69;99824.22;5052256;28;20056;-70
2021/06/21 09:01:09;;;;;;;25.33;5.53;;;;;;;35.92;28.73;99823.03;5052861;28;20543;-71
2021/06/21 09:03:36;;;;;;;32.15;6.63;;;;;;;36.03;28.27;99824.00;5053745;28;20037;-73
2021/06/21 09:06:03;;;;;;;32.88;6.35;;;;;;;36.08;28.54;99818.63;5053257;28;20071;-77
2021/06/21 09:08:57;;;;;;;24.98;5.50;;;;;;;35.27;28.72;99824.59;5052768;28;20041;-74
2021/06/21 09:11:44;;;;;;;;;;;;;;;35.03;29.92;99825.84;5064706;28;20064;-78
2021/06/21 09:14:33;;;;;;;23.38;5.43;;;;;;;35.01;29.86;99819.88;5052338;28;19924;-72
2021/06/21 09:17:05;;;;;;;30.63;6.00;;;;;;;35.21;29.63;99819.34;5046163;28;20041;-76
2021/06/21 09:19:49;;;;;;;18.95;5.78;;;;;;;35.29;29.57;99814.34;5053659;28;20037;-77
2021/06/21 09:22:30;;;;;;;26.30;6.15;;;;;;;34.98;29.94;99812.22;5050598;28;20041;-86
2021/06/21 09:24:59;;;;;;;35.50;6.38;;;;;;;34.80;30.12;99814.09;5052709;28;20483;-78
2021/06/21 09:27:26;;;;;;;39.30;7.20;;;;;;;35.03;30.05;99815.03;5053212;28;20041;-74
2021/06/21 09:29:53;;;;;;;25.77;6.15;;;;;;;35.10;30.62;99812.94;5052100;28;20041;-77
2021/06/21 09:32:43;;;;;;;28.08;6.53;;;;;;;35.10;30.48;99804.81;5051704;28;20049;-75
2021/06/21 09:35:31;;;;;;;24.63;6.00;;;;;;;35.11;30.11;99807.31;5052128;28;20526;-75
2021/06/21 09:37:59;;;;;;;30.67;7.05;;;;;;;35.22;30.53;99802.84;5047828;28;20033;-72
2021/06/21 09:40:30;;;;;;;37.47;7.03;;;;;;;35.16;30.31;99807.38;5052650;28;20045;-79
2021/06/21 09:43:17;;;;;;;36.15;7.20;;;;;;;35.21;30.83;99797.66;5051039;28;20040;-69
2021/06/21 09:46:29;;;;;;;39.33;7.38;;;;;;;35.24;30.55;99792.56;5055093;28;20041;-71
2021/06/21 09:48:55;;;;;;;38.22;6.95;;;;;;;35.24;30.70;99792.56;5050687;28;20048;-72
2021/06/21 09:51:22;;;;;;;28.30;6.57;;;;;;;35.32;30.22;99784.03;5054336;28;20049;-71
2021/06/21 09:54:12;;;;;;;29.17;6.13;;;;;;;35.39;30.05;99787.38;5052308;28;20045;-70
2021/06/21 09:56:39;;;;;;;38.58;6.72;;;;;;;35.40;29.68;99786.28;5049526;28;20094;-68
2021/06/21 09:59:24;;;;;;;37.03;7.38;;;;;;;35.35;29.88;99786.22;5050454;28;20037;-68
2021/06/21 10:02:03;;;;;;;29.15;6.28;;;;;;;35.31;30.49;99778.84;5048238;28;20075;-67
2021/06/21 10:04:31;;;;;;;36.22;8.45;;;;;;;34.61;31.59;99777.50;5051334;28;20136;-69
2021/06/21 10:06:58;;;;;;;32.33;7.90;;;;;;;34.61;32.46;99778.31;5051618;28;20048;-71
2021/06/21 10:09:25;;;;;;;28.52;5.88;;;;;;;34.37;31.71;99780.31;5050846;28;20094;-69
2021/06/21 10:11:53;;;;;;;29.90;7.63;;;;;;;34.10;32.09;99780.13;5050963;28;20488;-72
2021/06/21 10:14:22;;;;;;;43.50;8.63;;;;;;;34.06;32.41;99772.72;5051566;28;20045;-70
2021/06/21 10:16:51;;;;;;;30.65;6.65;;;;;;;34.10;32.65;99763.88;5051519;28;20052;-72
2021/06/21 10:19:18;;;;;;;29.15;7.15;;;;;;;33.93;32.45;99767.56;5048780;28;20820;-72
2021/06/21 10:21:48;;;;;;;32.25;7.45;;;;;;;33.98;31.93;99770.38;5051467;28;20491;-73
2021/06/21 10:24:17;;;;;;;36.70;7.10;;;;;;;34.12;32.04;99756.34;5049087;28;20072;-73
2021/06/21 10:26:51;;;;;;;30.40;6.22;;;;;;;33.85;32.18;99756.06;5048946;28;20087;-74
2021/06/21 10:29:20;;;;;;;33.28;7.70;;;;;;;33.65;32.60;99762.97;5050890;28;20052;-77
2021/06/21 10:31:47;;;;;;;31.33;7.30;;;;;;;33.56;32.99;99760.66;5051333;28;20036;-79
2021/06/21 10:34:17;;;;;;;24.10;5.70;;;;;;;33.75;32.16;99755.88;5048944;28;20099;-77
2021/06/21 10:36:47;;;;;;;36.70;7.13;;;;;;;34.00;32.66;99752.06;5051104;28;20048;-77
2021/06/21 10:39:22;;;;;;;34.38;6.32;;;;;;;33.98;32.25;99748.75;5050260;28;20102;-76
2021/06/21 10:42:10;;;;;;;27.42;6.53;;;;;;;33.79;33.32;99757.03;5053263;28;20500;-73
2021/06/21 10:44:41;;;;;;;26.95;6.18;;;;;;;33.82;33.25;99751.13;5042982;28;20052;-76
2021/06/21 10:47:33;;;;;;;28.02;6.22;;;;;;;33.78;33.58;99746.47;5051240;28;20484;-76
2021/06/21 10:50:05;;;;;;;19.77;6.93;;;;;;;33.61;33.04;99741.00;5053395;28;20048;-77
2021/06/21 10:52:37;;;;;;;37.22;7.93;;;;;;;33.66;33.10;99745.69;5049900;28;20033;-78
2021/06/21 10:55:23;;;;;;;46.23;8.07;;;;;;;33.54;33.03;99743.00;5049739;28;20503;-79
2021/06/21 10:57:53;;;;;;;27.77;7.55;;;;;;;33.65;32.82;99741.34;5049208;28;20484;-79
2021/06/21 11:00:29;;;;;;;46.40;10.07;;;;;;;33.48;33.82;99743.97;5050214;28;20045;-78
2021/06/21 11:02:56;;;;;;;32.70;6.28;;;;;;;33.42;33.64;99744.94;5047696;28;20445;-82
2021/06/21 11:05:32;;;;;;;28.73;7.45;;;;;;;33.44;33.77;99745.50;5048153;28;20115;-72
2021/06/21 11:08:23;;;;;;;29.88;6.95;;;;;;;33.46;34.23;99744.22;5045788;28;20048;-68
2021/06/21 11:10:52;;;;;;;28.33;6.57;;;;;;;33.20;34.67;99745.53;5064129;28;20094;-68
2021/06/21 11:13:35;;;;;;;27.65;6.60;;;;;;;33.15;34.54;99744.59;5060315;28;20049;-69
2021/06/21 11:16:19;;;;;;;38.72;7.07;;;;;;;33.08;34.89;99740.13;5055180;28;20075;-67
2021/06/21 11:18:51;;;;;;;33.35;8.45;;;;;;;33.14;34.75;99745.66;5063533;28;20040;-66
2021/06/21 11:21:25;;;;;;;28.20;6.75;;;;;;;33.28;35.19;99739.75;5059096;28;20136;-66
2021/06/21 11:23:53;;;;;;;35.92;6.60;;;;;;;33.36;34.51;99739.38;5066870;28;20041;-66
2021/06/21 11:26:51;;;;;;;30.13;7.07;;;;;;;33.36;34.36;99731.28;5060729;28;20040;-66
2021/06/21 11:29:29;;;;;;;31.08;7.88;;;;;;;33.23;34.67;99738.81;5055694;28;20049;-68
2021/06/21 11:32:01;;;;;;;33.33;7.93;;;;;;;33.41;34.37;99732.47;5047684;28;20041;-67
2021/06/21 11:34:49;;;;;;;30.83;7.68;;;;;;;33.45;34.63;99739.03;5050989;28;20118;-68
2021/06/21 11:37:35;;;;;;;45.33;9.23;;;;;;;33.52;33.73;99740.56;5051880;28;20045;-69
2021/06/21 11:40:11;;;;;;;27.70;7.38;;;;;;;33.55;33.78;99728.44;5055767;28;20095;-69